sensor_id;sensor_type;location;lat;lon;timestamp;P1;durP1;ratioP1;P2;durP2;ratioP2
39924;SDS011;25592;49.986;11.618;2023-05-07T00:01:54;5.53;;;3.88;;
39924;SDS011;25592;49.986;11.618;2023-05-07T00:04:40;5.70;;;3.70;;
39924;SDS011;25592;49.986;11.618;2023-05-07T00:07:26;9.75;;;4.05;;
39924;SDS011;25592;49.986;11.618;2023-05-07T00:10:11;5.97;;;3.72;;
39924;SDS011;25592;49.986;11.618;2023-05-07T00:12:57;6.38;;;4.53;;
39924;SDS011;25592;49.986;11.618;2023-05-07T00:15:42;7.40;;;5.13;;
39924;SDS011;25592;49.986;11.618;2023-05-07T00:18:28;6.93;;;5.40;;
39924;SDS011;25592;49.986;11.618;2023-05-07T00:21:13;6.47;;;4.70;;
39924;SDS011;25592;49.986;11.618;2023-05-07T00:23:59;5.85;;;4.18;;
39924;SDS011;25592;49.986;11.618;2023-05-07T00:26:44;6.47;;;4.32;;
39924;SDS011;25592;49.986;11.618;2023-05-07T00:29:30;5.55;;;4.28;;
39924;SDS011;25592;49.986;11.618;2023-05-07T00:32:15;6.93;;;4.20;;
39924;SDS011;25592;49.986;11.618;2023-05-07T00:35:00;7.03;;;4.82;;
39924;SDS011;25592;49.986;11.618;2023-05-07T00:37:46;6.95;;;4.78;;
39924;SDS011;25592;49.986;11.618;2023-05-07T00:40:31;6.82;;;4.93;;
39924;SDS011;25592;49.986;11.618;2023-05-07T00:43:16;7.80;;;5.70;;
39924;SDS011;25592;49.986;11.618;2023-05-07T00:46:02;10.23;;;5.55;;
39924;SDS011;25592;49.986;11.618;2023-05-07T00:48:47;7.45;;;5.60;;
39924;SDS011;25592;49.986;11.618;2023-05-07T00:51:34;7.03;;;5.32;;
39924;SDS011;25592;49.986;11.618;2023-05-07T00:54:19;7.22;;;5.20;;
39924;SDS011;25592;49.986;11.618;2023-05-07T00:57:06;6.38;;;5.00;;
39924;SDS011;25592;49.986;11.618;2023-05-07T00:59:52;8.23;;;5.53;;
39924;SDS011;25592;49.986;11.618;2023-05-07T01:02:38;7.07;;;5.32;;
39924;SDS011;25592;49.986;11.618;2023-05-07T01:05:24;7.95;;;5.90;;
39924;SDS011;25592;49.986;11.618;2023-05-07T01:08:11;8.00;;;5.80;;
39924;SDS011;25592;49.986;11.618;2023-05-07T01:10:57;8.35;;;5.50;;
39924;SDS011;25592;49.986;11.618;2023-05-07T01:13:42;7.05;;;5.22;;
39924;SDS011;25592;49.986;11.618;2023-05-07T01:16:28;8.80;;;5.47;;
39924;SDS011;25592;49.986;11.618;2023-05-07T01:19:13;7.57;;;5.95;;
39924;SDS011;25592;49.986;11.618;2023-05-07T01:22:07;6.95;;;4.70;;
39924;SDS011;25592;49.986;11.618;2023-05-07T01:24:53;7.65;;;4.93;;
39924;SDS011;25592;49.986;11.618;2023-05-07T01:27:40;7.20;;;4.90;;
39924;SDS011;25592;49.986;11.618;2023-05-07T01:30:26;6.85;;;4.53;;
39924;SDS011;25592;49.986;11.618;2023-05-07T01:33:13;7.80;;;5.05;;
39924;SDS011;25592;49.986;11.618;2023-05-07T01:36:00;6.75;;;4.93;;
39924;SDS011;25592;49.986;11.618;2023-05-07T01:38:48;5.90;;;4.50;;
39924;SDS011;25592;49.986;11.618;2023-05-07T01:41:34;6.65;;;5.00;;
39924;SDS011;25592;49.986;11.618;2023-05-07T01:44:20;10.80;;;5.28;;
39924;SDS011;25592;49.986;11.618;2023-05-07T01:47:06;10.15;;;6.15;;
39924;SDS011;25592;49.986;11.618;2023-05-07T01:49:52;8.60;;;6.10;;
39924;SDS011;25592;49.986;11.618;2023-05-07T01:52:37;10.45;;;6.40;;
39924;SDS011;25592;49.986;11.618;2023-05-07T01:55:23;7.22;;;5.53;;
39924;SDS011;25592;49.986;11.618;2023-05-07T01:58:09;8.45;;;5.85;;
39924;SDS011;25592;49.986;11.618;2023-05-07T02:00:55;8.38;;;5.78;;
39924;SDS011;25592;49.986;11.618;2023-05-07T02:03:40;8.65;;;6.40;;
39924;SDS011;25592;49.986;11.618;2023-05-07T02:06:26;8.52;;;5.72;;
39924;SDS011;25592;49.986;11.618;2023-05-07T02:09:12;7.80;;;5.90;;
39924;SDS011;25592;49.986;11.618;2023-05-07T02:12:02;9.15;;;5.53;;
39924;SDS011;25592;49.986;11.618;2023-05-07T02:14:48;8.63;;;6.15;;
39924;SDS011;25592;49.986;11.618;2023-05-07T02:17:33;13.65;;;6.65;;
39924;SDS011;25592;49.986;11.618;2023-05-07T02:20:18;9.07;;;6.32;;
39924;SDS011;25592;49.986;11.618;2023-05-07T02:23:04;8.07;;;5.75;;
39924;SDS011;25592;49.986;11.618;2023-05-07T02:25:49;10.80;;;6.82;;
39924;SDS011;25592;49.986;11.618;2023-05-07T02:28:35;9.70;;;6.40;;
39924;SDS011;25592;49.986;11.618;2023-05-07T02:31:20;11.85;;;6.95;;
39924;SDS011;25592;49.986;11.618;2023-05-07T02:34:06;9.77;;;6.95;;
39924;SDS011;25592;49.986;11.618;2023-05-07T02:36:51;9.70;;;5.72;;
39924;SDS011;25592;49.986;11.618;2023-05-07T02:39:36;9.77;;;6.55;;
39924;SDS011;25592;49.986;11.618;2023-05-07T02:42:22;8.00;;;5.93;;
39924;SDS011;25592;49.986;11.618;2023-05-07T02:45:07;8.35;;;6.25;;
39924;SDS011;25592;49.986;11.618;2023-05-07T02:47:53;7.68;;;5.97;;
39924;SDS011;25592;49.986;11.618;2023-05-07T02:50:38;9.48;;;6.28;;
39924;SDS011;25592;49.986;11.618;2023-05-07T02:53:24;9.88;;;6.15;;
39924;SDS011;25592;49.986;11.618;2023-05-07T02:56:13;9.30;;;6.28;;
39924;SDS011;25592;49.986;11.618;2023-05-07T02:58:59;8.68;;;6.30;;
39924;SDS011;25592;49.986;11.618;2023-05-07T03:01:44;7.43;;;5.85;;
39924;SDS011;25592;49.986;11.618;2023-05-07T03:04:30;10.57;;;6.68;;
39924;SDS011;25592;49.986;11.618;2023-05-07T03:07:15;9.27;;;6.43;;
39924;SDS011;25592;49.986;11.618;2023-05-07T03:10:01;9.93;;;7.05;;
39924;SDS011;25592;49.986;11.618;2023-05-07T03:12:46;11.23;;;7.65;;
39924;SDS011;25592;49.986;11.618;2023-05-07T03:15:32;11.77;;;8.45;;
39924;SDS011;25592;49.986;11.618;2023-05-07T03:18:17;10.52;;;7.45;;
39924;SDS011;25592;49.986;11.618;2023-05-07T03:21:02;9.25;;;6.80;;
39924;SDS011;25592;49.986;11.618;2023-05-07T03:23:48;13.05;;;8.05;;
39924;SDS011;25592;49.986;11.618;2023-05-07T03:26:33;11.23;;;8.23;;
39924;SDS011;25592;49.986;11.618;2023-05-07T03:29:18;10.13;;;7.57;;
39924;SDS011;25592;49.986;11.618;2023-05-07T03:32:04;11.10;;;7.85;;
39924;SDS011;25592;49.986;11.618;2023-05-07T03:34:50;13.98;;;8.52;;
39924;SDS011;25592;49.986;11.618;2023-05-07T03:37:35;10.82;;;7.68;;
39924;SDS011;25592;49.986;11.618;2023-05-07T03:40:21;11.30;;;6.90;;
39924;SDS011;25592;49.986;11.618;2023-05-07T03:43:06;9.60;;;6.63;;
39924;SDS011;25592;49.986;11.618;2023-05-07T03:45:52;10.32;;;7.60;;
39924;SDS011;25592;49.986;11.618;2023-05-07T03:48:37;17.63;;;9.07;;
39924;SDS011;25592;49.986;11.618;2023-05-07T03:51:22;10.82;;;8.48;;
39924;SDS011;25592;49.986;11.618;2023-05-07T03:54:08;9.35;;;7.05;;
39924;SDS011;25592;49.986;11.618;2023-05-07T03:56:53;11.85;;;8.35;;
39924;SDS011;25592;49.986;11.618;2023-05-07T03:59:39;12.05;;;8.98;;
39924;SDS011;25592;49.986;11.618;2023-05-07T04:02:24;10.70;;;8.45;;
39924;SDS011;25592;49.986;11.618;2023-05-07T04:05:10;9.95;;;7.45;;
39924;SDS011;25592;49.986;11.618;2023-05-07T04:07:55;12.57;;;7.75;;
39924;SDS011;25592;49.986;11.618;2023-05-07T04:10:40;11.63;;;7.32;;
39924;SDS011;25592;49.986;11.618;2023-05-07T04:13:26;10.90;;;7.70;;
39924;SDS011;25592;49.986;11.618;2023-05-07T04:16:11;10.43;;;7.78;;
39924;SDS011;25592;49.986;11.618;2023-05-07T04:18:57;9.77;;;6.80;;
39924;SDS011;25592;49.986;11.618;2023-05-07T04:21:42;12.93;;;8.52;;
39924;SDS011;25592;49.986;11.618;2023-05-07T04:24:30;11.27;;;7.47;;
39924;SDS011;25592;49.986;11.618;2023-05-07T04:27:17;12.38;;;8.18;;
39924;SDS011;25592;49.986;11.618;2023-05-07T04:30:03;13.82;;;10.02;;
39924;SDS011;25592;49.986;11.618;2023-05-07T04:32:48;15.10;;;9.13;;
39924;SDS011;25592;49.986;11.618;2023-05-07T04:35:34;12.73;;;8.77;;
39924;SDS011;25592;49.986;11.618;2023-05-07T04:38:20;17.58;;;10.25;;
39924;SDS011;25592;49.986;11.618;2023-05-07T04:41:06;14.00;;;9.82;;
39924;SDS011;25592;49.986;11.618;2023-05-07T04:43:51;13.70;;;9.95;;
39924;SDS011;25592;49.986;11.618;2023-05-07T04:46:36;14.98;;;9.48;;
39924;SDS011;25592;49.986;11.618;2023-05-07T04:49:22;12.52;;;8.88;;
39924;SDS011;25592;49.986;11.618;2023-05-07T04:52:07;13.60;;;9.38;;
39924;SDS011;25592;49.986;11.618;2023-05-07T04:54:52;13.45;;;9.43;;
39924;SDS011;25592;49.986;11.618;2023-05-07T04:57:37;11.65;;;8.65;;
39924;SDS011;25592;49.986;11.618;2023-05-07T05:00:25;18.20;;;9.07;;
39924;SDS011;25592;49.986;11.618;2023-05-07T05:03:10;12.05;;;8.90;;
39924;SDS011;25592;49.986;11.618;2023-05-07T05:05:56;13.90;;;9.18;;
39924;SDS011;25592;49.986;11.618;2023-05-07T05:08:44;11.85;;;8.80;;
39924;SDS011;25592;49.986;11.618;2023-05-07T05:11:29;13.05;;;8.88;;
39924;SDS011;25592;49.986;11.618;2023-05-07T05:14:15;13.75;;;8.82;;
39924;SDS011;25592;49.986;11.618;2023-05-07T05:17:00;11.73;;;8.48;;
39924;SDS011;25592;49.986;11.618;2023-05-07T05:19:46;13.52;;;9.55;;
39924;SDS011;25592;49.986;11.618;2023-05-07T05:22:31;13.82;;;9.85;;
39924;SDS011;25592;49.986;11.618;2023-05-07T05:25:17;13.57;;;9.10;;
39924;SDS011;25592;49.986;11.618;2023-05-07T05:28:03;13.25;;;9.02;;
39924;SDS011;25592;49.986;11.618;2023-05-07T05:30:48;14.20;;;8.98;;
39924;SDS011;25592;49.986;11.618;2023-05-07T05:33:34;12.45;;;9.48;;
39924;SDS011;25592;49.986;11.618;2023-05-07T05:36:19;13.90;;;9.32;;
39924;SDS011;25592;49.986;11.618;2023-05-07T05:39:05;17.55;;;9.00;;
39924;SDS011;25592;49.986;11.618;2023-05-07T05:41:50;16.85;;;10.00;;
39924;SDS011;25592;49.986;11.618;2023-05-07T05:44:36;13.05;;;9.82;;
39924;SDS011;25592;49.986;11.618;2023-05-07T05:47:21;13.90;;;9.75;;
39924;SDS011;25592;49.986;11.618;2023-05-07T05:50:07;13.50;;;10.02;;
39924;SDS011;25592;49.986;11.618;2023-05-07T05:52:53;14.80;;;10.00;;
39924;SDS011;25592;49.986;11.618;2023-05-07T05:55:38;13.48;;;9.75;;
39924;SDS011;25592;49.986;11.618;2023-05-07T05:58:24;13.77;;;9.32;;
39924;SDS011;25592;49.986;11.618;2023-05-07T06:01:09;15.32;;;10.90;;
39924;SDS011;25592;49.986;11.618;2023-05-07T06:03:56;13.80;;;9.93;;
39924;SDS011;25592;49.986;11.618;2023-05-07T06:06:41;12.32;;;8.82;;
39924;SDS011;25592;49.986;11.618;2023-05-07T06:09:26;13.05;;;9.73;;
39924;SDS011;25592;49.986;11.618;2023-05-07T06:12:13;12.75;;;9.75;;
39924;SDS011;25592;49.986;11.618;2023-05-07T06:14:58;16.77;;;10.02;;
39924;SDS011;25592;49.986;11.618;2023-05-07T06:17:44;15.57;;;8.35;;
39924;SDS011;25592;49.986;11.618;2023-05-07T06:20:29;13.80;;;10.02;;
39924;SDS011;25592;49.986;11.618;2023-05-07T06:23:15;12.73;;;8.82;;
39924;SDS011;25592;49.986;11.618;2023-05-07T06:26:01;11.70;;;8.85;;
39924;SDS011;25592;49.986;11.618;2023-05-07T06:28:47;11.98;;;8.48;;
39924;SDS011;25592;49.986;11.618;2023-05-07T06:31:33;15.02;;;9.68;;
39924;SDS011;25592;49.986;11.618;2023-05-07T06:34:18;16.98;;;9.50;;
39924;SDS011;25592;49.986;11.618;2023-05-07T06:37:04;11.50;;;8.23;;
39924;SDS011;25592;49.986;11.618;2023-05-07T06:39:51;12.32;;;8.90;;
39924;SDS011;25592;49.986;11.618;2023-05-07T06:42:36;13.80;;;8.88;;
39924;SDS011;25592;49.986;11.618;2023-05-07T06:45:22;12.95;;;8.75;;
39924;SDS011;25592;49.986;11.618;2023-05-07T06:48:10;11.43;;;8.63;;
39924;SDS011;25592;49.986;11.618;2023-05-07T06:50:56;13.18;;;8.63;;
39924;SDS011;25592;49.986;11.618;2023-05-07T06:53:43;13.65;;;8.75;;
39924;SDS011;25592;49.986;11.618;2023-05-07T06:56:28;11.23;;;8.15;;
39924;SDS011;25592;49.986;11.618;2023-05-07T06:59:13;11.00;;;7.90;;
39924;SDS011;25592;49.986;11.618;2023-05-07T07:02:00;12.05;;;9.07;;
39924;SDS011;25592;49.986;11.618;2023-05-07T07:04:45;17.02;;;9.23;;
39924;SDS011;25592;49.986;11.618;2023-05-07T07:07:31;14.05;;;8.38;;
39924;SDS011;25592;49.986;11.618;2023-05-07T07:10:16;11.75;;;8.63;;
39924;SDS011;25592;49.986;11.618;2023-05-07T07:13:02;15.13;;;8.68;;
39924;SDS011;25592;49.986;11.618;2023-05-07T07:15:47;13.18;;;8.55;;
39924;SDS011;25592;49.986;11.618;2023-05-07T07:18:32;11.48;;;7.10;;
39924;SDS011;25592;49.986;11.618;2023-05-07T07:21:18;15.77;;;9.00;;
39924;SDS011;25592;49.986;11.618;2023-05-07T07:24:04;16.50;;;9.95;;
39924;SDS011;25592;49.986;11.618;2023-05-07T07:26:49;13.05;;;9.02;;
39924;SDS011;25592;49.986;11.618;2023-05-07T07:29:34;12.85;;;8.90;;
39924;SDS011;25592;49.986;11.618;2023-05-07T07:32:20;13.77;;;9.23;;
39924;SDS011;25592;49.986;11.618;2023-05-07T07:35:05;11.82;;;9.23;;
39924;SDS011;25592;49.986;11.618;2023-05-07T07:37:51;13.80;;;8.98;;
39924;SDS011;25592;49.986;11.618;2023-05-07T07:40:37;12.82;;;9.75;;
39924;SDS011;25592;49.986;11.618;2023-05-07T07:43:22;13.27;;;9.43;;
39924;SDS011;25592;49.986;11.618;2023-05-07T07:46:08;13.93;;;8.98;;
39924;SDS011;25592;49.986;11.618;2023-05-07T07:48:53;11.77;;;8.40;;
39924;SDS011;25592;49.986;11.618;2023-05-07T07:51:39;13.73;;;9.18;;
39924;SDS011;25592;49.986;11.618;2023-05-07T07:54:24;15.23;;;9.10;;
39924;SDS011;25592;49.986;11.618;2023-05-07T07:57:10;13.38;;;8.85;;
39924;SDS011;25592;49.986;11.618;2023-05-07T07:59:56;13.88;;;9.88;;
39924;SDS011;25592;49.986;11.618;2023-05-07T08:02:41;13.70;;;9.75;;
39924;SDS011;25592;49.986;11.618;2023-05-07T08:05:27;12.05;;;9.02;;
39924;SDS011;25592;49.986;11.618;2023-05-07T08:08:12;14.60;;;10.07;;
39924;SDS011;25592;49.986;11.618;2023-05-07T08:10:58;15.55;;;9.88;;
39924;SDS011;25592;49.986;11.618;2023-05-07T08:13:43;17.67;;;10.63;;
39924;SDS011;25592;49.986;11.618;2023-05-07T08:16:30;13.35;;;10.35;;
39924;SDS011;25592;49.986;11.618;2023-05-07T08:19:15;17.80;;;10.43;;
39924;SDS011;25592;49.986;11.618;2023-05-07T08:22:02;13.18;;;9.38;;
39924;SDS011;25592;49.986;11.618;2023-05-07T08:24:47;15.57;;;10.15;;
39924;SDS011;25592;49.986;11.618;2023-05-07T08:27:33;12.77;;;9.52;;
39924;SDS011;25592;49.986;11.618;2023-05-07T08:30:18;13.02;;;9.90;;
39924;SDS011;25592;49.986;11.618;2023-05-07T08:33:04;13.40;;;10.27;;
39924;SDS011;25592;49.986;11.618;2023-05-07T08:35:49;13.35;;;10.40;;
39924;SDS011;25592;49.986;11.618;2023-05-07T08:38:34;14.23;;;9.45;;
39924;SDS011;25592;49.986;11.618;2023-05-07T08:41:20;13.60;;;9.75;;
39924;SDS011;25592;49.986;11.618;2023-05-07T08:44:06;13.13;;;9.05;;
39924;SDS011;25592;49.986;11.618;2023-05-07T08:46:57;13.35;;;10.38;;
39924;SDS011;25592;49.986;11.618;2023-05-07T08:49:44;13.70;;;9.73;;
39924;SDS011;25592;49.986;11.618;2023-05-07T08:52:29;13.50;;;9.57;;
39924;SDS011;25592;49.986;11.618;2023-05-07T08:55:15;15.68;;;10.43;;
39924;SDS011;25592;49.986;11.618;2023-05-07T08:58:01;13.77;;;9.95;;
39924;SDS011;25592;49.986;11.618;2023-05-07T09:00:47;11.80;;;9.02;;
39924;SDS011;25592;49.986;11.618;2023-05-07T09:03:33;11.85;;;8.43;;
39924;SDS011;25592;49.986;11.618;2023-05-07T09:06:18;12.60;;;9.60;;
39924;SDS011;25592;49.986;11.618;2023-05-07T09:09:03;12.38;;;9.00;;
39924;SDS011;25592;49.986;11.618;2023-05-07T09:11:56;11.35;;;8.52;;
39924;SDS011;25592;49.986;11.618;2023-05-07T09:14:44;12.95;;;8.45;;
39924;SDS011;25592;49.986;11.618;2023-05-07T09:17:31;12.85;;;8.50;;
39924;SDS011;25592;49.986;11.618;2023-05-07T09:20:16;12.00;;;8.35;;
39924;SDS011;25592;49.986;11.618;2023-05-07T09:23:02;13.85;;;7.82;;
39924;SDS011;25592;49.986;11.618;2023-05-07T09:25:47;14.40;;;8.82;;
39924;SDS011;25592;49.986;11.618;2023-05-07T09:28:33;15.85;;;9.93;;
39924;SDS011;25592;49.986;11.618;2023-05-07T09:31:18;12.68;;;7.30;;
39924;SDS011;25592;49.986;11.618;2023-05-07T09:34:05;11.90;;;8.30;;
39924;SDS011;25592;49.986;11.618;2023-05-07T09:36:51;10.52;;;8.25;;
39924;SDS011;25592;49.986;11.618;2023-05-07T09:39:43;14.68;;;8.30;;
39924;SDS011;25592;49.986;11.618;2023-05-07T09:42:29;9.60;;;7.35;;
39924;SDS011;25592;49.986;11.618;2023-05-07T09:45:15;11.38;;;7.05;;
39924;SDS011;25592;49.986;11.618;2023-05-07T09:48:01;11.57;;;8.25;;
39924;SDS011;25592;49.986;11.618;2023-05-07T09:50:51;12.85;;;8.07;;
39924;SDS011;25592;49.986;11.618;2023-05-07T09:53:39;11.48;;;7.60;;
39924;SDS011;25592;49.986;11.618;2023-05-07T09:56:26;10.77;;;7.10;;
39924;SDS011;25592;49.986;11.618;2023-05-07T09:59:15;8.98;;;6.05;;
39924;SDS011;25592;49.986;11.618;2023-05-07T10:02:01;9.77;;;6.57;;
39924;SDS011;25592;49.986;11.618;2023-05-07T10:04:48;8.18;;;5.82;;
39924;SDS011;25592;49.986;11.618;2023-05-07T10:07:35;10.65;;;6.32;;
39924;SDS011;25592;49.986;11.618;2023-05-07T10:10:20;9.25;;;6.28;;
39924;SDS011;25592;49.986;11.618;2023-05-07T10:13:06;9.68;;;6.38;;
39924;SDS011;25592;49.986;11.618;2023-05-07T10:15:55;12.45;;;6.55;;
39924;SDS011;25592;49.986;11.618;2023-05-07T10:18:41;7.88;;;5.82;;
39924;SDS011;25592;49.986;11.618;2023-05-07T10:21:27;8.95;;;5.95;;
39924;SDS011;25592;49.986;11.618;2023-05-07T10:24:29;7.28;;;5.47;;
39924;SDS011;25592;49.986;11.618;2023-05-07T10:27:18;5.40;;;3.85;;
39924;SDS011;25592;49.986;11.618;2023-05-07T10:33:11;9.25;;;4.53;;
39924;SDS011;25592;49.986;11.618;2023-05-07T10:36:00;5.43;;;3.88;;
39924;SDS011;25592;49.986;11.618;2023-05-07T10:38:47;6.25;;;4.00;;
39924;SDS011;25592;49.986;11.618;2023-05-07T10:41:33;5.70;;;4.05;;
39924;SDS011;25592;49.986;11.618;2023-05-07T10:44:28;55.50;;;9.25;;
39924;SDS011;25592;49.986;11.618;2023-05-07T10:47:15;11.90;;;4.85;;
39924;SDS011;25592;49.986;11.618;2023-05-07T10:53:14;7.90;;;4.40;;
39924;SDS011;25592;49.986;11.618;2023-05-07T11:02:15;7.75;;;3.90;;
39924;SDS011;25592;49.986;11.618;2023-05-07T11:05:20;5.13;;;3.30;;
39924;SDS011;25592;49.986;11.618;2023-05-07T11:08:07;4.90;;;3.47;;
39924;SDS011;25592;49.986;11.618;2023-05-07T11:10:53;5.35;;;3.17;;
39924;SDS011;25592;49.986;11.618;2023-05-07T11:13:41;6.88;;;2.88;;
39924;SDS011;25592;49.986;11.618;2023-05-07T11:16:34;4.93;;;3.05;;
39924;SDS011;25592;49.986;11.618;2023-05-07T11:19:47;5.07;;;2.67;;
39924;SDS011;25592;49.986;11.618;2023-05-07T11:22:52;5.20;;;3.40;;
39924;SDS011;25592;49.986;11.618;2023-05-07T11:25:40;6.07;;;3.75;;
39924;SDS011;25592;49.986;11.618;2023-05-07T11:28:29;7.88;;;3.13;;
39924;SDS011;25592;49.986;11.618;2023-05-07T11:31:17;4.07;;;2.55;;
39924;SDS011;25592;49.986;11.618;2023-05-07T11:34:07;4.25;;;2.38;;
39924;SDS011;25592;49.986;11.618;2023-05-07T11:36:53;4.35;;;2.92;;
39924;SDS011;25592;49.986;11.618;2023-05-07T11:39:40;4.63;;;2.90;;
39924;SDS011;25592;49.986;11.618;2023-05-07T11:42:29;7.78;;;3.22;;
39924;SDS011;25592;49.986;11.618;2023-05-07T11:45:22;6.70;;;3.90;;
39924;SDS011;25592;49.986;11.618;2023-05-07T11:48:15;9.55;;;3.55;;
39924;SDS011;25592;49.986;11.618;2023-05-07T11:51:02;6.20;;;4.25;;
39924;SDS011;25592;49.986;11.618;2023-05-07T11:53:48;5.10;;;3.55;;
39924;SDS011;25592;49.986;11.618;2023-05-07T11:56:34;5.47;;;3.38;;
39924;SDS011;25592;49.986;11.618;2023-05-07T11:59:20;5.65;;;3.45;;
39924;SDS011;25592;49.986;11.618;2023-05-07T12:02:06;5.15;;;3.65;;
39924;SDS011;25592;49.986;11.618;2023-05-07T12:04:52;8.75;;;3.83;;
39924;SDS011;25592;49.986;11.618;2023-05-07T12:07:38;4.72;;;2.92;;
39924;SDS011;25592;49.986;11.618;2023-05-07T12:10:23;6.00;;;3.33;;
39924;SDS011;25592;49.986;11.618;2023-05-07T12:13:19;7.10;;;4.13;;
39924;SDS011;25592;49.986;11.618;2023-05-07T12:16:06;4.75;;;3.63;;
39924;SDS011;25592;49.986;11.618;2023-05-07T12:18:52;5.40;;;3.35;;
39924;SDS011;25592;49.986;11.618;2023-05-07T12:21:39;5.95;;;3.60;;
39924;SDS011;25592;49.986;11.618;2023-05-07T12:24:25;5.38;;;3.10;;
39924;SDS011;25592;49.986;11.618;2023-05-07T12:27:11;4.85;;;3.22;;
39924;SDS011;25592;49.986;11.618;2023-05-07T12:29:57;5.00;;;3.85;;
39924;SDS011;25592;49.986;11.618;2023-05-07T12:32:45;4.90;;;3.45;;
39924;SDS011;25592;49.986;11.618;2023-05-07T12:35:30;4.78;;;3.30;;
39924;SDS011;25592;49.986;11.618;2023-05-07T12:38:20;6.63;;;2.90;;
39924;SDS011;25592;49.986;11.618;2023-05-07T12:41:06;5.35;;;3.13;;
39924;SDS011;25592;49.986;11.618;2023-05-07T12:43:55;7.13;;;3.13;;
39924;SDS011;25592;49.986;11.618;2023-05-07T12:46:42;6.00;;;3.47;;
39924;SDS011;25592;49.986;11.618;2023-05-07T12:49:27;6.13;;;3.17;;
39924;SDS011;25592;49.986;11.618;2023-05-07T12:52:13;5.22;;;3.42;;
39924;SDS011;25592;49.986;11.618;2023-05-07T12:55:03;3.65;;;2.53;;
39924;SDS011;25592;49.986;11.618;2023-05-07T12:57:53;4.65;;;3.28;;
39924;SDS011;25592;49.986;11.618;2023-05-07T13:00:39;5.30;;;3.50;;
39924;SDS011;25592;49.986;11.618;2023-05-07T13:03:27;5.55;;;3.10;;
39924;SDS011;25592;49.986;11.618;2023-05-07T13:06:17;6.97;;;3.33;;
39924;SDS011;25592;49.986;11.618;2023-05-07T13:09:02;4.50;;;2.80;;
39924;SDS011;25592;49.986;11.618;2023-05-07T13:11:49;5.90;;;3.10;;
39924;SDS011;25592;49.986;11.618;2023-05-07T13:14:34;3.97;;;3.00;;
39924;SDS011;25592;49.986;11.618;2023-05-07T13:17:19;5.15;;;2.78;;
39924;SDS011;25592;49.986;11.618;2023-05-07T13:20:05;4.97;;;3.03;;
39924;SDS011;25592;49.986;11.618;2023-05-07T13:22:53;5.57;;;3.65;;
39924;SDS011;25592;49.986;11.618;2023-05-07T13:25:38;4.40;;;3.20;;
39924;SDS011;25592;49.986;11.618;2023-05-07T13:28:24;4.90;;;2.88;;
39924;SDS011;25592;49.986;11.618;2023-05-07T13:31:09;4.82;;;2.75;;
39924;SDS011;25592;49.986;11.618;2023-05-07T13:33:55;6.88;;;3.53;;
39924;SDS011;25592;49.986;11.618;2023-05-07T13:36:41;4.95;;;2.97;;
39924;SDS011;25592;49.986;11.618;2023-05-07T13:39:26;3.80;;;2.63;;
39924;SDS011;25592;49.986;11.618;2023-05-07T13:42:12;3.72;;;2.58;;
39924;SDS011;25592;49.986;11.618;2023-05-07T13:44:57;3.50;;;2.30;;
39924;SDS011;25592;49.986;11.618;2023-05-07T13:47:43;4.18;;;2.67;;
39924;SDS011;25592;49.986;11.618;2023-05-07T13:50:29;7.65;;;2.92;;
39924;SDS011;25592;49.986;11.618;2023-05-07T13:53:14;4.32;;;2.78;;
39924;SDS011;25592;49.986;11.618;2023-05-07T13:56:02;7.05;;;3.53;;
39924;SDS011;25592;49.986;11.618;2023-05-07T13:58:49;5.95;;;3.47;;
39924;SDS011;25592;49.986;11.618;2023-05-07T14:01:44;7.47;;;3.38;;
39924;SDS011;25592;49.986;11.618;2023-05-07T14:04:30;6.70;;;4.03;;
39924;SDS011;25592;49.986;11.618;2023-05-07T14:07:15;4.75;;;3.25;;
39924;SDS011;25592;49.986;11.618;2023-05-07T14:10:01;4.15;;;3.00;;
39924;SDS011;25592;49.986;11.618;2023-05-07T14:12:47;6.07;;;3.28;;
39924;SDS011;25592;49.986;11.618;2023-05-07T14:15:32;5.07;;;3.45;;
39924;SDS011;25592;49.986;11.618;2023-05-07T14:18:18;4.53;;;3.35;;
39924;SDS011;25592;49.986;11.618;2023-05-07T14:21:04;7.35;;;3.92;;
39924;SDS011;25592;49.986;11.618;2023-05-07T14:23:50;5.22;;;3.72;;
39924;SDS011;25592;49.986;11.618;2023-05-07T14:26:36;4.55;;;3.03;;
39924;SDS011;25592;49.986;11.618;2023-05-07T14:29:21;6.18;;;3.67;;
39924;SDS011;25592;49.986;11.618;2023-05-07T14:32:08;5.28;;;3.58;;
39924;SDS011;25592;49.986;11.618;2023-05-07T14:34:53;5.95;;;3.88;;
39924;SDS011;25592;49.986;11.618;2023-05-07T14:37:39;5.80;;;3.70;;
39924;SDS011;25592;49.986;11.618;2023-05-07T14:40:24;5.35;;;3.70;;
39924;SDS011;25592;49.986;11.618;2023-05-07T14:43:09;5.85;;;4.20;;
39924;SDS011;25592;49.986;11.618;2023-05-07T14:45:55;6.60;;;4.25;;
39924;SDS011;25592;49.986;11.618;2023-05-07T14:48:40;5.57;;;4.25;;
39924;SDS011;25592;49.986;11.618;2023-05-07T14:51:26;7.53;;;4.03;;
39924;SDS011;25592;49.986;11.618;2023-05-07T14:54:13;5.65;;;3.90;;
39924;SDS011;25592;49.986;11.618;2023-05-07T14:56:59;5.35;;;3.60;;
39924;SDS011;25592;49.986;11.618;2023-05-07T14:59:44;6.00;;;3.90;;
39924;SDS011;25592;49.986;11.618;2023-05-07T15:02:30;6.45;;;4.15;;
39924;SDS011;25592;49.986;11.618;2023-05-07T15:05:15;6.57;;;3.92;;
39924;SDS011;25592;49.986;11.618;2023-05-07T15:08:02;6.10;;;3.92;;
39924;SDS011;25592;49.986;11.618;2023-05-07T15:10:47;6.60;;;4.28;;
39924;SDS011;25592;49.986;11.618;2023-05-07T15:13:33;6.60;;;4.55;;
39924;SDS011;25592;49.986;11.618;2023-05-07T15:16:18;5.88;;;3.95;;
39924;SDS011;25592;49.986;11.618;2023-05-07T15:19:04;5.57;;;4.13;;
39924;SDS011;25592;49.986;11.618;2023-05-07T15:21:49;6.50;;;3.70;;
39924;SDS011;25592;49.986;11.618;2023-05-07T15:24:35;5.10;;;3.80;;
39924;SDS011;25592;49.986;11.618;2023-05-07T15:27:21;5.55;;;3.78;;
39924;SDS011;25592;49.986;11.618;2023-05-07T15:30:07;6.38;;;4.13;;
39924;SDS011;25592;49.986;11.618;2023-05-07T15:32:55;7.18;;;4.00;;
39924;SDS011;25592;49.986;11.618;2023-05-07T15:35:40;6.63;;;3.60;;
39924;SDS011;25592;49.986;11.618;2023-05-07T15:38:26;7.25;;;3.75;;
39924;SDS011;25592;49.986;11.618;2023-05-07T15:41:11;5.40;;;3.70;;
39924;SDS011;25592;49.986;11.618;2023-05-07T15:43:56;5.60;;;3.40;;
39924;SDS011;25592;49.986;11.618;2023-05-07T15:46:42;6.32;;;4.18;;
39924;SDS011;25592;49.986;11.618;2023-05-07T15:49:28;5.47;;;3.67;;
39924;SDS011;25592;49.986;11.618;2023-05-07T15:52:13;6.32;;;3.60;;
39924;SDS011;25592;49.986;11.618;2023-05-07T15:54:59;5.15;;;3.35;;
39924;SDS011;25592;49.986;11.618;2023-05-07T15:57:44;5.38;;;3.88;;
39924;SDS011;25592;49.986;11.618;2023-05-07T16:00:30;7.40;;;4.25;;
39924;SDS011;25592;49.986;11.618;2023-05-07T16:03:15;5.78;;;4.10;;
39924;SDS011;25592;49.986;11.618;2023-05-07T16:06:02;7.57;;;3.70;;
39924;SDS011;25592;49.986;11.618;2023-05-07T16:08:48;5.78;;;3.45;;
39924;SDS011;25592;49.986;11.618;2023-05-07T16:11:34;5.30;;;3.15;;
39924;SDS011;25592;49.986;11.618;2023-05-07T16:14:20;5.38;;;3.65;;
39924;SDS011;25592;49.986;11.618;2023-05-07T16:17:06;6.65;;;3.47;;
39924;SDS011;25592;49.986;11.618;2023-05-07T16:19:52;4.68;;;3.13;;
39924;SDS011;25592;49.986;11.618;2023-05-07T16:22:37;6.75;;;3.95;;
39924;SDS011;25592;49.986;11.618;2023-05-07T16:25:22;5.20;;;3.63;;
39924;SDS011;25592;49.986;11.618;2023-05-07T16:28:08;7.05;;;3.38;;
39924;SDS011;25592;49.986;11.618;2023-05-07T16:30:53;5.78;;;3.55;;
39924;SDS011;25592;49.986;11.618;2023-05-07T16:33:39;6.78;;;2.97;;